Time;durP1;ratioP1;P1;durP2;ratioP2;P2;SDS_P1;SDS_P2;PMS_P1;PMS_P2;Temp;Humidity;BMP_temperature;BMP_pressure;BME280_temperature;BME280_humidity;BME280_pressure;Samples;Min_cycle;Max_cycle;Signal;HPM_P1;HPM_P2
2022/03/22 00:01:51;;;;;;;35.33;20.10;;;;;;;7.12;72.35;102965.34;5051515;28;20031;-87
2022/03/22 00:04:20;;;;;;;37.45;19.10;;;;;;;7.11;72.66;102967.09;5045045;28;20029;-87
2022/03/22 00:06:46;;;;;;;35.85;20.15;;;;;;;7.09;72.42;102960.09;5053341;28;20036;-88
2022/03/22 00:09:11;;;;;;;34.63;18.77;;;;;;;7.07;71.89;102957.50;5042775;28;20087;-88
2022/03/22 00:11:36;;;;;;;30.60;18.25;;;;;;;7.05;71.24;102969.53;5041155;28;20037;-87
2022/03/22 00:14:02;;;;;;;32.67;19.00;;;;;;;7.05;71.26;102969.53;5047989;28;20090;-87
2022/03/22 00:16:29;;;;;;;35.08;19.27;;;;;;;6.99;70.70;102967.66;5043741;28;20033;-88
2022/03/22 00:18:54;;;;;;;34.47;19.58;;;;;;;6.99;70.90;102969.41;5034764;28;20033;-88
2022/03/22 00:21:20;;;;;;;33.47;18.63;;;;;;;6.95;70.95;102968.41;5047289;28;20034;-87
2022/03/22 00:23:47;;;;;;;29.42;17.60;;;;;;;6.94;71.62;102966.66;5040120;28;20040;-87
2022/03/22 00:26:12;;;;;;;32.88;18.27;;;;;;;6.94;71.36;102960.63;5047690;28;20048;-88
2022/03/22 00:28:37;;;;;;;33.08;18.15;;;;;;;6.91;70.61;102970.91;5048493;28;20456;-87
2022/03/22 00:31:03;;;;;;;30.83;17.75;;;;;;;6.86;70.16;102972.50;5053351;28;20033;-87
2022/03/22 00:33:28;;;;;;;29.73;17.42;;;;;;;6.80;70.42;102971.53;5049214;28;20492;-88
2022/03/22 00:35:53;;;;;;;29.52;17.90;;;;;;;6.75;70.48;102967.94;5050348;28;20548;-88
2022/03/22 00:38:20;;;;;;;32.20;19.20;;;;;;;6.72;70.94;102975.63;5048676;28;20022;-87
2022/03/22 00:40:46;;;;;;;28.35;17.83;;;;;;;6.70;71.50;102976.44;5046959;28;20587;-87
2022/03/22 00:43:12;;;;;;;28.50;16.98;;;;;;;6.65;70.55;102973.75;5047119;28;20027;-88
2022/03/22 00:45:38;;;;;;;27.80;15.85;;;;;;;6.62;70.00;102974.53;5044118;28;20104;-87
2022/03/22 00:48:08;;;;;;;27.05;16.20;;;;;;;6.59;70.04;102978.75;5045172;28;20025;-87
2022/03/22 00:50:35;;;;;;;27.13;16.30;;;;;;;6.52;70.84;102969.97;5050404;28;20033;-88
2022/03/22 00:53:02;;;;;;;32.42;17.83;;;;;;;6.48;70.47;102971.59;5073176;28;20013;-88
2022/03/22 00:55:28;;;;;;;32.03;18.45;;;;;;;6.45;70.85;102976.69;5055270;28;20033;-87
2022/03/22 00:57:55;;;;;;;35.08;19.25;;;;;;;6.43;70.98;102977.47;5047188;28;20032;-87
2022/03/22 01:00:24;;;;;;;32.38;18.20;;;;;;;6.40;71.01;102978.28;5049547;28;20024;-88
2022/03/22 01:02:51;;;;;;;29.88;17.60;;;;;;;6.36;70.41;102971.25;5064638;28;20025;-88
2022/03/22 01:05:19;;;;;;;30.75;18.10;;;;;;;6.32;70.29;102982.38;5051888;28;20387;-88
2022/03/22 01:07:46;;;;;;;33.40;17.58;;;;;;;6.30;70.08;102981.47;5045916;28;20042;-88
2022/03/22 01:10:12;;;;;;;33.92;17.75;;;;;;;6.27;70.43;102978.78;5059567;28;20036;-88
2022/03/22 01:12:40;;;;;;;31.50;17.85;;;;;;;6.24;70.38;102976.97;5044128;28;20049;-87
2022/03/22 01:15:13;;;;;;;34.55;19.58;;;;;;;6.25;72.06;102977.88;5043919;28;20033;-87
2022/03/22 01:17:38;;;;;;;37.78;18.83;;;;;;;6.26;71.90;102977.91;5046723;28;20037;-86
2022/03/22 01:20:06;;;;;;;31.65;18.02;;;;;;;6.26;72.36;102984.78;5052102;28;20077;-87
2022/03/22 01:22:32;;;;;;;31.88;17.80;;;;;;;6.25;72.49;102977.88;5059749;28;20040;-87
2022/03/22 01:24:59;;;;;;;32.22;16.95;;;;;;;6.24;72.71;102982.16;5045846;28;20020;-88
2022/03/22 01:27:26;;;;;;;29.52;17.42;;;;;;;6.27;72.92;102986.53;5048292;28;20027;-87
2022/03/22 01:29:52;;;;;;;36.90;18.95;;;;;;;6.30;72.66;102976.28;5041003;28;20051;-88
2022/03/22 01:32:17;;;;;;;29.35;17.27;;;;;;;6.32;72.89;102974.63;5037392;28;20100;-87
2022/03/22 01:34:42;;;;;;;31.67;17.42;;;;;;;6.33;73.31;102977.25;5040177;28;20032;-87
2022/03/22 01:37:09;;;;;;;27.33;16.35;;;;;;;6.37;73.57;102978.19;5043548;28;20029;-87
2022/03/22 01:39:34;;;;;;;27.63;16.48;;;;;;;6.42;73.78;102971.44;5053751;28;20355;-87
2022/03/22 01:42:00;;;;;;;31.27;16.63;;;;;;;6.48;73.85;102976.78;5039558;28;20430;-88
2022/03/22 01:44:25;;;;;;;28.05;16.08;;;;;;;6.52;73.30;102977.72;5043551;28;20033;-87
2022/03/22 01:46:54;;;;;;;28.60;16.13;;;;;;;6.59;73.74;102983.94;5048031;28;20021;-88
2022/03/22 01:49:19;;;;;;;27.98;16.55;;;;;;;6.62;73.59;102982.28;5049915;28;20037;-87
2022/03/22 01:51:48;;;;;;;26.75;16.02;;;;;;;6.65;73.54;102973.75;5048397;28;20034;-87
2022/03/22 01:54:15;;;;;;;26.80;16.15;;;;;;;6.68;72.98;102979.88;5044832;28;20018;-87
2022/03/22 01:56:41;;;;;;;27.00;16.27;;;;;;;6.70;72.83;102974.72;5047001;28;20505;-88
2022/03/22 01:59:06;;;;;;;29.35;16.48;;;;;;;6.72;72.57;102977.34;5042919;28;20327;-87
2022/03/22 02:07:03;;;;;;;29.05;16.20;;;;;;;6.75;72.46;102969.66;5047404;28;20039;-88
2022/03/22 02:09:29;;;;;;;30.13;15.95;;;;;;;6.74;71.91;102971.38;5043843;28;21092;-87
2022/03/22 02:11:55;;;;;;;25.20;15.38;;;;;;;6.74;72.14;102968.78;5045844;28;20114;-87
2022/03/22 02:14:20;;;;;;;26.80;15.88;;;;;;;6.74;72.23;102973.09;5045634;28;20029;-88
2022/03/22 02:16:46;;;;;;;27.58;15.25;;;;;;;6.72;71.91;102970.47;5040012;28;20075;-88
2022/03/22 02:19:14;;;;;;;28.98;16.15;;;;;;;6.71;71.68;102968.69;5037823;28;20094;-87
2022/03/22 02:21:40;;;;;;;27.75;15.98;;;;;;;6.70;71.59;102972.13;5040397;28;20040;-87
2022/03/22 02:24:06;;;;;;;25.42;15.38;;;;;;;6.67;72.18;102966.88;5046466;28;20484;-87
2022/03/22 02:26:31;;;;;;;26.67;15.52;;;;;;;6.66;71.59;102971.19;5037523;28;20024;-87
2022/03/22 02:28:57;;;;;;;27.70;15.07;;;;;;;6.64;71.89;102964.25;5042249;28;21461;-87
2022/03/22 02:31:23;;;;;;;24.60;15.43;;;;;;;6.63;72.16;102962.47;5037013;28;20044;-87
2022/03/22 02:33:49;;;;;;;25.80;15.63;;;;;;;6.60;72.00;102960.66;5037522;28;20048;-87
2022/03/22 02:36:15;;;;;;;27.55;15.95;;;;;;;6.60;71.90;102965.00;5046022;28;20076;-88
2022/03/22 02:38:40;;;;;;;27.50;15.35;;;;;;;6.58;72.24;102967.50;5042823;28;20115;-87
2022/03/22 02:41:07;;;;;;;27.23;15.45;;;;;;;6.53;71.58;102956.19;5053137;28;20373;-87
2022/03/22 02:43:33;;;;;;;27.45;14.70;;;;;;;6.49;71.53;102960.41;5050795;28;20388;-87
2022/03/22 02:45:59;;;;;;;26.98;15.30;;;;;;;6.45;72.11;102956.00;5052247;28;20025;-88
2022/03/22 02:48:24;;;;;;;33.03;16.10;;;;;;;6.43;71.33;102960.25;5046946;28;20078;-88
2022/03/22 02:50:50;;;;;;;24.50;14.55;;;;;;;6.40;71.91;102957.59;5047617;28;20052;-87
2022/03/22 02:53:15;;;;;;;29.77;16.25;;;;;;;6.39;71.33;102966.19;5036687;28;20170;-87
2022/03/22 02:55:41;;;;;;;25.42;15.35;;;;;;;6.37;71.48;102963.56;5044174;28;20098;-87
2022/03/22 02:58:06;;;;;;;24.60;14.70;;;;;;;6.35;71.54;102960.06;5044309;28;20021;-88
2022/03/22 03:00:31;;;;;;;24.92;15.30;;;;;;;6.31;71.15;102959.94;5046061;28;20040;-87
2022/03/22 03:02:57;;;;;;;26.05;14.88;;;;;;;6.26;71.10;102961.53;5062188;28;20017;-88
2022/03/22 03:05:22;;;;;;;24.42;13.98;;;;;;;6.19;70.10;102963.06;5056375;28;20037;-88
2022/03/22 03:07:50;;;;;;;25.55;14.02;;;;;;;6.13;70.39;102963.78;5046749;28;20021;-87
2022/03/22 03:10:15;;;;;;;27.50;14.82;;;;;;;6.06;71.42;102957.56;5048225;28;20537;-87
2022/03/22 03:12:41;;;;;;;23.60;14.75;;;;;;;6.01;71.19;102972.06;5050167;28;20029;-87
2022/03/22 03:15:09;;;;;;;27.63;15.77;;;;;;;5.99;71.89;102977.97;5039903;28;20028;-87
2022/03/22 03:17:34;;;;;;;27.92;16.25;;;;;;;5.98;72.23;102973.69;5038867;28;20060;-87
2022/03/22 03:20:01;;;;;;;26.80;15.13;;;;;;;5.96;72.35;102980.50;5037714;28;20472;-87
2022/03/22 03:22:26;;;;;;;31.50;16.85;;;;;;;5.93;71.66;102976.09;5042463;28;20024;-88
2022/03/22 03:24:52;;;;;;;28.30;15.57;;;;;;;5.88;70.37;102978.56;5037108;28;20025;-87
2022/03/22 03:27:17;;;;;;;28.42;15.30;;;;;;;5.83;70.11;102969.81;5050981;28;20028;-87
2022/03/22 03:29:42;;;;;;;28.10;15.18;;;;;;;5.78;70.22;102980.00;5050899;28;20043;-87
2022/03/22 03:32:08;;;;;;;28.77;15.63;;;;;;;5.75;71.12;102977.34;5043971;28;20052;-87
2022/03/22 03:34:34;;;;;;;30.88;15.98;;;;;;;5.72;71.17;102976.38;5045674;28;20450;-87
2022/03/22 03:36:59;;;;;;;31.00;16.00;;;;;;;5.69;71.52;102977.19;5053189;28;20504;-87
2022/03/22 03:39:25;;;;;;;33.65;16.95;;;;;;;5.66;71.91;102989.09;5045327;28;20025;-87
2022/03/22 03:42:00;;;;;;;30.75;16.38;;;;;;;5.64;71.50;102985.63;5041721;28;20389;-87
2022/03/22 03:47:16;;;;;;;30.17;15.27;;;;;;;5.57;71.22;102982.84;5046606;28;20067;-87
2022/03/22 03:49:45;;;;;;;32.35;16.08;;;;;;;5.53;71.37;102988.75;5041338;28;20060;-87
2022/03/22 03:52:16;;;;;;;28.73;14.77;;;;;;;5.49;71.05;102994.63;5049388;28;20465;-87
2022/03/22 03:54:42;;;;;;;23.50;14.32;;;;;;;5.46;71.11;102994.56;5051411;28;20017;-87
2022/03/22 03:57:08;;;;;;;23.20;13.93;;;;;;;5.41;70.87;102989.25;5037757;28;20041;-87
2022/03/22 03:59:35;;;;;;;27.42;14.10;;;;;;;5.36;70.50;102995.09;5041858;28;20031;-87
2022/03/22 04:02:01;;;;;;;27.08;14.63;;;;;;;5.31;70.28;103005.28;5043468;28;20036;-88
2022/03/22 04:04:27;;;;;;;27.58;14.50;;;;;;;5.29;72.04;103002.66;5041850;28;20031;-87
2022/03/22 04:06:52;;;;;;;25.33;14.75;;;;;;;5.28;71.96;103000.91;5044319;28;20111;-86
2022/03/22 04:09:17;;;;;;;25.13;15.20;;;;;;;5.27;72.17;103001.75;5044655;28;20025;-87
2022/03/22 04:11:44;;;;;;;32.22;15.93;;;;;;;5.27;72.42;103004.31;5041929;28;20033;-87
2022/03/22 04:14:10;;;;;;;27.90;15.45;;;;;;;5.23;72.84;102997.31;5039977;28;20033;-88
2022/03/22 04:16:36;;;;;;;27.25;15.70;;;;;;;5.25;72.57;102998.22;5043534;28;20144;-87
2022/03/22 04:19:07;;;;;;;26.92;15.18;;;;;;;5.23;73.19;102999.88;5041526;28;20460;-87
2022/03/22 04:21:34;;;;;;;26.92;14.50;;;;;;;5.25;72.86;103005.09;5039321;28;20044;-87
2022/03/22 04:24:05;;;;;;;24.30;14.15;;;;;;;5.26;72.99;103005.16;5039691;28;20027;-87
2022/03/22 04:26:31;;;;;;;26.17;14.55;;;;;;;5.25;72.65;103003.41;5047705;28;20028;-87
2022/03/22 04:32:41;;;;;;;26.05;14.15;;;;;;;5.21;71.81;102998.97;5041347;28;20068;-87
2022/03/22 04:34:42;;;;;;;25.25;14.65;;;;;;;5.19;71.54;102999.75;5040329;28;20396;-87
2022/03/22 04:37:12;;;;;;;25.35;13.95;;;;;;;5.14;71.19;103005.63;5043321;28;20047;-87
2022/03/22 04:39:38;;;;;;;36.13;14.35;;;;;;;5.12;71.20;103003.84;5040443;28;20035;-87
2022/03/22 04:42:04;;;;;;;23.50;14.05;;;;;;;5.08;71.69;103005.44;5040774;28;20021;-87
2022/03/22 04:44:30;;;;;;;25.55;14.02;;;;;;;5.05;71.73;103001.88;5039968;28;20390;-87
2022/03/22 04:46:56;;;;;;;25.05;13.98;;;;;;;5.04;72.18;103008.72;5037404;28;20037;-87
2022/03/22 04:49:22;;;;;;;22.90;13.63;;;;;;;5.01;72.27;103012.09;5037292;28;20043;-87
2022/03/22 04:57:16;;;;;;;23.42;14.20;;;;;;;4.94;73.04;103015.31;5039743;28;20075;-87
2022/03/22 04:59:42;;;;;;;25.75;14.13;;;;;;;4.90;73.15;103021.19;5034670;28;20461;-88
2022/03/22 05:02:08;;;;;;;23.92;13.93;;;;;;;4.88;72.78;103020.25;5039719;28;20044;-87
2022/03/22 05:04:34;;;;;;;23.30;13.88;;;;;;;4.86;72.36;103014.16;5040412;28;20033;-87
2022/03/22 05:06:59;;;;;;;25.13;15.45;;;;;;;4.84;71.77;103018.41;5037821;28;20392;-88
2022/03/22 05:09:24;;;;;;;26.98;14.07;;;;;;;4.80;71.92;103022.59;5036764;28;20021;-88
2022/03/22 05:11:50;;;;;;;28.92;14.35;;;;;;;4.80;72.17;103021.69;5038331;28;20075;-87
2022/03/22 05:14:15;;;;;;;28.85;13.95;;;;;;;4.78;72.03;103026.81;5039135;28;20471;-87
2022/03/22 05:16:40;;;;;;;31.45;15.57;;;;;;;4.75;72.31;103031.84;5040739;28;20073;-87
2022/03/22 05:19:06;;;;;;;25.60;14.80;;;;;;;4.75;72.46;103033.56;5036469;28;20039;-87
2022/03/22 05:21:31;;;;;;;26.58;14.52;;;;;;;4.71;72.78;103033.47;5034535;28;20494;-87
2022/03/22 05:23:57;;;;;;;27.13;14.55;;;;;;;4.69;72.45;103029.09;5036492;28;20469;-87
2022/03/22 05:26:22;;;;;;;25.05;14.07;;;;;;;4.69;72.85;103036.81;5035972;28;20037;-88
2022/03/22 05:28:47;;;;;;;27.50;14.57;;;;;;;4.67;72.42;103036.75;5033249;28;20173;-87
2022/03/22 05:31:14;;;;;;;27.00;14.30;;;;;;;4.64;72.40;103041.81;5034186;28;20082;-87
2022/03/22 05:33:42;;;;;;;28.75;14.20;;;;;;;4.62;72.52;103043.44;5036877;28;20113;-87
2022/03/22 05:36:08;;;;;;;31.40;14.70;;;;;;;4.60;72.88;103050.28;5033384;28;20507;-87
2022/03/22 05:38:33;;;;;;;33.05;14.93;;;;;;;4.57;72.55;103057.91;5036062;28;20219;-87
2022/03/22 05:41:02;;;;;;;22.67;13.20;;;;;;;4.55;72.91;103054.38;5037012;28;20036;-87
2022/03/22 05:43:28;;;;;;;27.80;14.82;;;;;;;4.53;73.14;103048.28;5034804;28;20067;-87
2022/03/22 05:45:53;;;;;;;33.45;16.15;;;;;;;4.52;73.71;103052.59;5035429;28;20052;-87
2022/03/22 05:48:19;;;;;;;30.42;15.05;;;;;;;4.54;73.01;103055.22;5047384;28;20032;-87
2022/03/22 05:50:45;;;;;;;29.40;16.20;;;;;;;4.55;73.45;103051.81;5037357;28;20048;-89
2022/03/22 05:53:11;;;;;;;30.88;16.52;;;;;;;4.53;73.24;103053.44;5062187;28;20045;-87
2022/03/22 05:55:38;;;;;;;29.17;16.25;;;;;;;4.50;73.39;103056.81;5079492;28;20101;-88
2022/03/22 05:58:03;;;;;;;28.17;15.45;;;;;;;4.49;73.85;103051.59;5071876;28;20047;-88
2022/03/22 06:00:29;;;;;;;27.20;15.48;;;;;;;4.48;73.50;103052.41;5071585;28;21019;-87
2022/03/22 06:02:55;;;;;;;28.63;15.48;;;;;;;4.51;74.03;103047.34;5047523;28;20032;-87
2022/03/22 06:05:21;;;;;;;28.10;15.00;;;;;;;4.52;74.45;103047.44;5047354;28;20423;-88
2022/03/22 06:07:47;;;;;;;28.23;15.20;;;;;;;4.54;74.07;103056.06;5049290;28;20025;-87
2022/03/22 06:10:13;;;;;;;26.95;15.05;;;;;;;4.56;74.07;103058.72;5041470;28;20033;-87
2022/03/22 06:12:44;;;;;;;26.95;14.90;;;;;;;4.56;74.08;103058.72;5044672;28;20463;-87
2022/03/22 06:15:17;;;;;;;26.27;14.73;;;;;;;4.56;73.92;103064.75;5037024;28;20151;-87
2022/03/22 06:17:52;;;;;;;24.40;14.75;;;;;;;4.58;73.89;103059.66;5038589;28;20040;-87
2022/03/22 06:20:19;;;;;;;24.08;13.32;;;;;;;4.61;74.01;103067.47;5034201;28;20033;-87
2022/03/22 06:22:46;;;;;;;28.40;15.07;;;;;;;4.63;74.63;103070.97;5033326;28;20051;-87
2022/03/22 06:25:13;;;;;;;27.10;15.40;;;;;;;4.68;74.48;103066.00;5036611;28;20025;-88
2022/03/22 06:27:39;;;;;;;25.30;14.77;;;;;;;4.71;74.46;103060.94;5043637;28;20021;-88
2022/03/22 06:30:06;;;;;;;30.00;14.82;;;;;;;4.75;74.49;103064.53;5036602;28;20071;-87
2022/03/22 06:32:38;;;;;;;26.83;14.88;;;;;;;4.76;74.88;103061.13;5034773;28;20033;-88
2022/03/22 06:35:04;;;;;;;28.77;15.70;;;;;;;4.81;74.32;103064.72;5036826;28;20059;-87
2022/03/22 06:37:29;;;;;;;27.33;15.68;;;;;;;4.84;74.50;103065.72;5032795;28;20030;-88
2022/03/22 06:39:55;;;;;;;30.00;14.55;;;;;;;4.85;74.12;103067.47;5031590;28;20029;-87
2022/03/22 06:42:20;;;;;;;24.02;14.02;;;;;;;4.89;74.37;103068.44;5036961;28;20052;-87
2022/03/22 06:44:45;;;;;;;30.20;15.85;;;;;;;4.92;74.79;103073.72;5038667;28;20029;-87
2022/03/22 06:47:10;;;;;;;28.67;15.85;;;;;;;4.96;74.90;103074.69;5043161;28;20021;-88
2022/03/22 06:49:36;;;;;;;30.63;16.95;;;;;;;5.03;74.94;103080.91;5041446;28;20121;-88
2022/03/22 06:52:01;;;;;;;29.08;17.05;;;;;;;5.11;75.21;103084.66;5037856;28;20477;-88
2022/03/22 06:54:27;;;;;;;29.35;16.98;;;;;;;5.19;75.42;103088.34;5035348;28;20075;-87
2022/03/22 06:56:53;;;;;;;30.67;16.90;;;;;;;5.30;75.30;103087.00;5036965;28;20091;-87
2022/03/22 06:59:18;;;;;;;34.85;17.92;;;;;;;5.40;74.99;103089.88;5035877;28;20029;-87
2022/03/22 07:01:43;;;;;;;33.22;17.65;;;;;;;5.49;75.01;103079.84;5036145;28;20037;-88
2022/03/22 07:04:09;;;;;;;30.73;17.58;;;;;;;5.58;75.24;103085.31;5037844;28;20024;-87
2022/03/22 07:06:34;;;;;;;29.77;16.70;;;;;;;5.69;75.46;103082.16;5036262;28;20036;-88
2022/03/22 07:08:59;;;;;;;29.92;16.98;;;;;;;5.76;75.01;103076.38;5042384;28;20036;-88
2022/03/22 07:14:09;;;;;;;28.27;16.50;;;;;;;5.97;75.72;103086.47;5047539;28;20048;-88
2022/03/22 07:16:36;;;;;;;31.70;18.33;;;;;;;6.05;75.75;103085.03;5059854;28;20021;-88
2022/03/22 07:19:01;;;;;;;30.90;17.35;;;;;;;6.15;76.43;103090.47;5052074;28;20025;-88
2022/03/22 07:21:26;;;;;;;32.17;19.20;;;;;;;6.24;75.85;103085.53;5054768;28;20036;-87
2022/03/22 07:23:52;;;;;;;31.73;18.88;;;;;;;6.33;75.11;103087.50;5049977;28;20122;-88
2022/03/22 07:26:17;;;;;;;36.17;19.50;;;;;;;6.43;74.97;103089.53;5054392;28;20029;-87
2022/03/22 07:28:43;;;;;;;36.03;19.92;;;;;;;6.51;74.24;103090.63;5044173;28;20465;-88
2022/03/22 07:31:08;;;;;;;35.35;20.02;;;;;;;6.61;74.73;103096.06;5041172;28;20029;-87
2022/03/22 07:33:36;;;;;;;37.83;20.17;;;;;;;6.68;74.06;103096.25;5034795;28;20469;-87
2022/03/22 07:36:01;;;;;;;32.60;19.08;;;;;;;6.76;73.72;103095.56;5036103;28;20048;-88
2022/03/22 07:38:27;;;;;;;32.08;19.33;;;;;;;6.85;73.72;103101.00;5041649;28;20488;-87
2022/03/22 07:40:52;;;;;;;33.33;20.73;;;;;;;6.92;73.24;103087.38;5045338;28;20127;-88
2022/03/22 07:43:17;;;;;;;33.78;21.17;;;;;;;6.99;72.92;103094.47;5037431;28;20473;-88
2022/03/22 07:45:44;;;;;;;33.95;19.13;;;;;;;7.06;72.62;103089.47;5038608;28;20094;-87
2022/03/22 07:48:10;;;;;;;37.53;20.33;;;;;;;7.12;72.53;103090.50;5039498;28;20468;-88
2022/03/22 07:53:19;;;;;;;35.33;21.17;;;;;;;7.30;72.02;103084.03;5040611;28;20103;-88
2022/03/22 07:55:45;;;;;;;35.75;21.92;;;;;;;7.38;71.20;103090.25;5040253;28;20036;-88
2022/03/22 07:58:11;;;;;;;33.97;20.67;;;;;;;7.48;71.73;103096.50;5039206;28;20030;-87
2022/03/22 08:00:39;;;;;;;34.08;20.05;;;;;;;7.58;70.31;103095.03;5046111;28;20546;-88
2022/03/22 08:03:08;;;;;;;33.38;19.48;;;;;;;7.69;69.54;103097.88;5040723;28;20029;-88
2022/03/22 08:05:35;;;;;;;34.17;20.17;;;;;;;7.81;68.73;103097.28;5042666;28;20035;-88
2022/03/22 08:08:01;;;;;;;34.90;20.20;;;;;;;7.93;69.97;103102.72;5047104;28;20025;-87
2022/03/22 08:10:26;;;;;;;31.63;19.33;;;;;;;8.03;69.52;103094.28;5041080;28;20037;-88
2022/03/22 08:12:53;;;;;;;31.98;20.45;;;;;;;8.14;68.22;103096.25;5035555;28;20052;-87
2022/03/22 08:15:18;;;;;;;37.47;20.45;;;;;;;8.27;67.14;103094.78;5042959;28;20023;-88
2022/03/22 08:17:44;;;;;;;33.30;19.65;;;;;;;8.38;67.27;103092.38;5042447;28;20053;-87
2022/03/22 08:20:11;;;;;;;33.00;19.50;;;;;;;8.49;66.17;103103.91;5045839;28;20123;-88
2022/03/22 08:22:50;;;;;;;36.67;19.83;;;;;;;8.59;65.91;103098.03;5049847;28;20059;-87
2022/03/22 08:25:16;;;;;;;33.17;20.13;;;;;;;8.72;65.80;103106.03;5046608;28;20032;-88
2022/03/22 08:27:42;;;;;;;30.27;19.45;;;;;;;8.79;66.11;103101.00;5045776;28;20079;-87
2022/03/22 08:30:09;;;;;;;33.42;19.38;;;;;;;8.89;65.12;103098.56;5052753;28;20040;-88
2022/03/22 08:32:34;;;;;;;34.70;19.65;;;;;;;9.00;65.33;103106.56;5045754;28;20391;-88
2022/03/22 08:34:59;;;;;;;30.40;19.02;;;;;;;9.11;64.98;103110.19;5050796;28;20464;-88
2022/03/22 08:37:25;;;;;;;33.33;19.65;;;;;;;9.19;64.56;103111.22;5056985;28;20415;-88
2022/03/22 08:39:50;;;;;;;29.83;18.95;;;;;;;9.28;62.74;103113.09;5054323;28;20048;-88
2022/03/22 08:42:16;;;;;;;31.52;18.75;;;;;;;9.38;63.49;103101.13;5050659;28;20028;-87
2022/03/22 08:44:41;;;;;;;33.17;19.40;;;;;;;9.47;63.74;103103.84;5051984;28;20356;-88
2022/03/22 08:47:07;;;;;;;34.25;19.65;;;;;;;9.54;62.98;103103.13;5064197;28;20484;-87
2022/03/22 08:49:33;;;;;;;33.75;18.70;;;;;;;9.64;61.84;103103.22;5052043;28;20033;-88
2022/03/22 08:52:00;;;;;;;33.03;19.63;;;;;;;9.74;63.07;103109.44;5051851;28;20508;-88
2022/03/22 08:54:25;;;;;;;33.50;20.02;;;;;;;9.81;60.97;103109.56;5051878;28;20040;-88
2022/03/22 08:56:50;;;;;;;31.92;19.48;;;;;;;9.90;61.99;103106.19;5051265;28;20491;-88
2022/03/22 08:59:16;;;;;;;32.25;19.67;;;;;;;9.97;61.50;103104.56;5055104;28;20037;-88
2022/03/22 09:01:41;;;;;;;32.85;20.58;;;;;;;10.04;62.71;103093.41;5052024;28;20036;-88
2022/03/22 09:06:50;;;;;;;31.05;18.95;;;;;;;10.23;62.72;103106.63;5051993;28;20040;-88
2022/03/22 09:09:16;;;;;;;31.70;18.85;;;;;;;10.29;60.92;103101.47;5049360;28;20400;-87
2022/03/22 09:11:41;;;;;;;35.20;19.73;;;;;;;10.37;60.76;103098.97;5057646;28;20088;-88
2022/03/22 09:14:06;;;;;;;37.97;20.88;;;;;;;10.45;61.02;103092.19;5051074;28;21073;-88
2022/03/22 09:16:32;;;;;;;36.13;20.27;;;;;;;10.54;60.82;103091.41;5053736;28;20029;-88
2022/03/22 09:18:58;;;;;;;31.63;19.45;;;;;;;10.64;60.07;103093.22;5049358;28;20054;-88
2022/03/22 09:21:23;;;;;;;31.20;19.50;;;;;;;10.73;60.63;103084.63;5050890;28;20496;-88
2022/03/22 09:23:48;;;;;;;34.65;19.98;;;;;;;10.81;59.61;103089.91;5049622;28;20036;-88
2022/03/22 09:26:14;;;;;;;31.42;19.27;;;;;;;10.87;58.98;103084.78;5047385;28;20542;-88
2022/03/22 09:28:41;;;;;;;42.78;20.45;;;;;;;10.95;59.64;103082.25;5056828;28;20044;-88
2022/03/22 09:31:08;;;;;;;31.13;19.23;;;;;;;11.02;58.78;103084.91;5042987;28;20044;-88
2022/03/22 09:33:33;;;;;;;33.83;19.17;;;;;;;11.11;58.15;103091.03;5047164;28;20049;-88
2022/03/22 09:35:58;;;;;;;30.00;18.80;;;;;;;11.16;57.34;103084.16;5046097;28;20048;-88
2022/03/22 09:38:24;;;;;;;36.03;18.63;;;;;;;11.25;58.02;103086.84;5052039;28;20020;-88
2022/03/22 09:40:53;;;;;;;35.80;19.25;;;;;;;11.34;57.57;103081.69;5047369;28;20060;-88
2022/03/22 09:43:20;;;;;;;32.92;19.10;;;;;;;11.43;57.37;103085.25;5044878;28;20427;-88
2022/03/22 09:45:46;;;;;;;31.98;18.27;;;;;;;11.49;55.52;103090.47;5047774;28;20032;-88
2022/03/22 09:48:12;;;;;;;31.23;18.23;;;;;;;11.56;56.03;103087.06;5046468;28;20082;-88
2022/03/22 09:53:21;;;;;;;33.20;18.55;;;;;;;11.69;55.65;103086.25;5048113;28;20223;-89
2022/03/22 09:55:46;;;;;;;34.05;18.52;;;;;;;11.77;54.87;103078.47;5044798;28;20517;-89
2022/03/22 09:58:12;;;;;;;34.10;19.00;;;;;;;11.85;55.46;103086.34;5048265;28;20461;-88
2022/03/22 10:00:38;;;;;;;30.90;17.55;;;;;;;11.93;54.28;103084.66;5048146;28;20045;-90
2022/03/22 10:03:04;;;;;;;30.13;17.90;;;;;;;11.98;53.67;103075.13;5047771;28;20116;-89
2022/03/22 10:05:29;;;;;;;30.20;18.08;;;;;;;12.05;54.52;103076.00;5045165;28;20482;-89
2022/03/22 10:08:05;;;;;;;34.45;18.25;;;;;;;12.12;53.11;103071.72;5046189;28;20141;-89
2022/03/22 10:10:31;;;;;;;31.27;18.13;;;;;;;12.17;53.61;103064.75;5038894;28;21401;-88
2022/03/22 10:12:58;;;;;;;32.30;17.98;;;;;;;12.25;53.40;103075.22;5047325;28;20037;-90
2022/03/22 10:15:35;;;;;;;34.38;18.50;;;;;;;12.34;54.15;103066.56;5049321;28;20025;-89
2022/03/22 10:18:07;;;;;;;32.78;17.23;;;;;;;12.43;54.33;103069.19;5047813;28;20194;-88
2022/03/22 10:20:34;;;;;;;30.42;18.08;;;;;;;12.51;54.87;103069.22;5049112;28;20042;-90
2022/03/22 10:23:01;;;;;;;29.13;17.20;;;;;;;12.57;52.13;103066.59;5047337;28;20025;-88
2022/03/22 10:25:31;;;;;;;30.42;17.35;;;;;;;12.63;52.01;103060.53;5046548;28;20035;-87
2022/03/22 10:27:58;;;;;;;29.90;17.33;;;;;;;12.67;50.16;103057.94;5045405;28;20536;-89
2022/03/22 10:30:23;;;;;;;29.20;16.92;;;;;;;12.76;52.13;103064.91;5045898;28;20341;-88
2022/03/22 10:32:52;;;;;;;32.05;17.58;;;;;;;12.83;51.01;103060.53;5046508;28;20452;-88
2022/03/22 10:35:28;;;;;;;29.58;16.23;;;;;;;12.88;50.18;103056.22;5051393;28;20044;-88
2022/03/22 10:38:02;;;;;;;27.65;15.95;;;;;;;12.91;47.12;103058.78;5056602;28;20029;-88
2022/03/22 10:40:29;;;;;;;27.77;15.60;;;;;;;12.97;48.34;103052.72;5053571;28;20025;-88
2022/03/22 10:42:58;;;;;;;28.92;16.05;;;;;;;13.04;48.37;103051.84;5053846;28;20025;-88
2022/03/22 10:45:27;;;;;;;27.10;15.32;;;;;;;13.11;48.24;103056.19;5061104;28;20028;-88
2022/03/22 10:47:52;;;;;;;26.35;14.80;;;;;;;13.18;47.18;103057.91;5063591;28;20531;-88
2022/03/22 10:50:18;;;;;;;27.42;15.95;;;;;;;13.27;47.17;103046.56;5059651;28;20020;-88
2022/03/22 10:52:52;;;;;;;26.90;16.17;;;;;;;13.34;47.50;103047.44;5062148;28;20029;-88
2022/03/22 10:55:21;;;;;;;28.02;16.15;;;;;;;13.43;50.65;103050.06;5055466;28;20033;-88
2022/03/22 10:57:56;;;;;;;30.83;16.70;;;;;;;13.51;47.96;103045.69;5053696;28;20111;-88
2022/03/22 11:00:22;;;;;;;27.67;16.58;;;;;;;13.58;46.62;103043.91;5052507;28;20484;-88
2022/03/22 11:02:51;;;;;;;28.52;16.27;;;;;;;13.66;48.61;103044.78;5055742;28;20075;-88
2022/03/22 11:05:20;;;;;;;31.25;16.92;;;;;;;13.73;48.38;103044.78;5069645;28;20052;-88
2022/03/22 11:07:47;;;;;;;29.75;15.80;;;;;;;13.78;46.94;103043.88;5071526;28;20024;-89
2022/03/22 11:10:14;;;;;;;30.55;16.30;;;;;;;13.85;48.52;103036.88;5056308;28;20029;-88
2022/03/22 11:12:40;;;;;;;28.30;15.65;;;;;;;13.95;47.00;103037.69;5060559;28;20104;-88
2022/03/22 11:15:07;;;;;;;28.77;16.08;;;;;;;14.07;47.81;103029.78;5063069;28;20022;-88
2022/03/22 11:17:34;;;;;;;30.30;17.58;;;;;;;14.17;47.63;103032.34;5053889;28;20055;-88
2022/03/22 11:20:01;;;;;;;30.30;16.90;;;;;;;14.26;47.88;103027.06;5053393;28;20075;-88
2022/03/22 11:22:28;;;;;;;30.58;17.75;;;;;;;14.34;47.35;103027.00;5054402;28;20061;-89
2022/03/22 11:25:05;;;;;;;31.48;16.60;;;;;;;14.44;48.41;103022.56;5049418;28;20088;-88
2022/03/22 11:27:31;;;;;;;30.55;17.00;;;;;;;14.51;45.53;103016.44;5053547;28;20052;-88
2022/03/22 11:29:56;;;;;;;30.40;17.05;;;;;;;14.63;45.77;103021.56;5052492;28;20052;-88
2022/03/22 11:35:12;;;;;;;31.38;16.38;;;;;;;14.85;46.43;103024.06;5072948;28;20078;-87
2022/03/22 11:37:38;;;;;;;25.70;15.43;;;;;;;14.95;45.10;103020.47;5093282;28;20031;-88
2022/03/22 11:42:56;;;;;;;25.58;15.07;;;;;;;15.24;45.62;103016.66;5079741;28;20099;-88
2022/03/22 11:45:21;;;;;;;28.42;15.23;;;;;;;15.38;45.48;103013.03;5077524;28;20072;-88